Time;durP1;ratioP1;P1;durP2;ratioP2;P2;SDS_P1;SDS_P2;PMS_P1;PMS_P2;Temp;Humidity;BMP_temperature;BMP_pressure;BME280_temperature;BME280_humidity;BME280_pressure;Samples;Min_cycle;Max_cycle;Signal;HPM_P1;HPM_P2
2021/03/13 00:01:19;;;;;;;54.23;24.82;;;;;;;1.23;76.73;98041.54;2142905;83;21608;-86
2021/03/13 00:04:21;;;;;;;51.37;23.75;;;;;;;1.20;76.76;98037.95;2132753;83;21190;-85
2021/03/13 00:07:22;;;;;;;51.50;24.40;;;;;;;1.18;76.71;98038.06;2143013;83;21219;-85
2021/03/13 00:10:24;;;;;;;55.30;24.77;;;;;;;1.18;76.80;98036.78;2132739;83;21180;-86
2021/03/13 00:13:26;;;;;;;47.67;23.47;;;;;;;1.16;76.80;98036.11;2143167;83;21163;-86
2021/03/13 00:16:27;;;;;;;42.03;21.30;;;;;;;1.13;76.76;98033.33;2132849;83;21792;-85
2021/03/13 00:19:29;;;;;;;45.52;20.35;;;;;;;1.14;76.74;98032.86;2138688;83;21197;-85
2021/03/13 00:22:30;;;;;;;48.55;23.35;;;;;;;1.14;76.71;98027.70;2132274;83;21172;-85
2021/03/13 00:25:32;;;;;;;48.70;22.48;;;;;;;1.14;76.71;98028.98;2115705;84;21593;-86
2021/03/13 00:28:34;;;;;;;51.25;22.65;;;;;;;1.14;76.77;98022.06;2115769;84;21609;-86
2021/03/13 00:31:35;;;;;;;43.30;21.55;;;;;;;1.14;76.76;98012.23;2115590;84;21296;-86
2021/03/13 00:34:37;;;;;;;50.17;21.68;;;;;;;1.14;76.68;98018.67;2115922;84;21617;-86
2021/03/13 00:37:39;;;;;;;43.87;21.40;;;;;;;1.14;76.73;98016.91;2116140;84;21650;-86
2021/03/13 00:40:40;;;;;;;41.02;19.75;;;;;;;1.13;76.69;98017.05;2115876;84;21209;-85
2021/03/13 00:43:42;;;;;;;42.38;21.10;;;;;;;1.13;76.70;98005.45;2115925;84;21172;-86
2021/03/13 00:46:45;;;;;;;52.08;22.27;;;;;;;1.15;76.74;98004.83;2115926;84;21149;-85
2021/03/13 00:49:46;;;;;;;43.70;22.40;;;;;;;1.12;76.77;98002.53;2116001;84;21197;-85
2021/03/13 00:52:48;;;;;;;42.55;20.40;;;;;;;1.10;76.80;97997.52;2114775;80;21171;-85
2021/03/13 00:55:49;;;;;;;40.48;19.48;;;;;;;1.11;76.75;98002.20;2189221;81;21265;-86
2021/03/13 00:58:51;;;;;;;44.35;21.00;;;;;;;1.09;76.69;98003.59;2189303;81;21344;-86
2021/03/13 01:01:53;;;;;;;42.10;20.82;;;;;;;1.09;76.76;98003.59;2188785;81;21356;-87
2021/03/13 01:04:54;;;;;;;47.48;20.90;;;;;;;1.09;76.72;98004.89;2188750;81;21560;-85
2021/03/13 01:07:56;;;;;;;42.13;21.00;;;;;;;1.08;76.67;97999.88;2188954;80;21473;-85
2021/03/13 01:10:57;;;;;;;44.63;22.25;;;;;;;1.07;76.68;97999.53;2189074;80;21119;-86
2021/03/13 01:13:59;;;;;;;46.15;21.20;;;;;;;1.03;76.66;97996.91;2188679;81;21298;-86
2021/03/13 01:17:01;;;;;;;42.13;19.35;;;;;;;1.04;76.67;97995.95;2189069;81;21325;-85
2021/03/13 01:20:02;;;;;;;40.63;19.55;;;;;;;1.05;76.67;97988.55;2188971;81;21317;-86
2021/03/13 01:23:04;;;;;;;44.23;20.80;;;;;;;1.06;76.68;97988.89;2188938;81;21178;-85
2021/03/13 01:26:06;;;;;;;47.23;20.82;;;;;;;1.08;76.68;97983.11;2188715;81;21281;-84
2021/03/13 01:29:07;;;;;;;44.25;21.70;;;;;;;1.07;76.61;97990.03;2189028;81;21166;-85
2021/03/13 01:32:09;;;;;;;48.85;20.32;;;;;;;1.10;76.57;97983.81;2188696;80;21202;-86
2021/03/13 01:35:10;;;;;;;39.05;20.05;;;;;;;1.10;76.53;97978.18;2189219;80;21336;-85
2021/03/13 01:38:12;;;;;;;45.05;20.20;;;;;;;1.09;76.55;97969.27;2189509;80;21304;-86
2021/03/13 01:41:14;;;;;;;51.00;21.52;;;;;;;1.07;76.51;97971.98;2188863;81;21150;-85
2021/03/13 01:44:15;;;;;;;46.00;20.68;;;;;;;1.06;76.48;97965.20;2189013;81;21272;-85
2021/03/13 01:47:17;;;;;;;40.63;20.37;;;;;;;1.07;76.43;97967.30;2188588;81;21788;-85
2021/03/13 01:50:18;;;;;;;44.93;20.68;;;;;;;1.06;76.46;97965.20;2188786;81;21641;-86
2021/03/13 01:53:20;;;;;;;45.60;20.77;;;;;;;1.08;76.51;97959.91;2188825;81;21172;-84
2021/03/13 01:56:21;;;;;;;43.17;21.60;;;;;;;1.07;76.51;97964.25;2188818;81;21705;-86
2021/03/13 01:59:23;;;;;;;37.53;17.80;;;;;;;1.08;76.40;97962.48;2189200;81;21167;-86
2021/03/13 02:02:25;;;;;;;45.90;21.73;;;;;;;1.07;76.39;97956.99;2188864;80;21328;-86
2021/03/13 02:05:26;;;;;;;39.25;18.02;;;;;;;1.07;76.42;97953.94;2189107;81;21174;-86
2021/03/13 02:08:28;;;;;;;42.15;17.90;;;;;;;1.06;76.33;97951.03;2189004;81;21316;-86
2021/03/13 02:11:29;;;;;;;40.25;19.48;;;;;;;1.07;76.37;97950.55;2189059;81;21304;-86
2021/03/13 02:14:31;;;;;;;39.78;18.20;;;;;;;1.10;76.30;97951.58;2188943;81;21285;-86
2021/03/13 02:17:33;;;;;;;39.30;19.27;;;;;;;1.11;76.29;97942.89;2189041;81;21316;-87
2021/03/13 02:20:34;;;;;;;33.55;19.70;;;;;;;1.14;76.22;97938.73;2188670;81;21142;-86
2021/03/13 02:23:36;;;;;;;39.60;18.27;;;;;;;1.14;76.30;97937.45;2189001;81;21313;-87
2021/03/13 02:26:37;;;;;;;36.13;17.95;;;;;;;1.14;76.18;97935.68;2188991;81;21285;-86
2021/03/13 02:29:39;;;;;;;34.60;16.37;;;;;;;1.17;76.09;97936.34;2188667;81;21312;-86
2021/03/13 02:32:41;;;;;;;38.17;16.80;;;;;;;1.18;76.09;97928.47;2188662;81;21300;-86
2021/03/13 02:35:42;;;;;;;38.30;17.95;;;;;;;1.20;75.98;97926.59;2188673;81;21310;-86
2021/03/13 02:38:44;;;;;;;32.15;16.67;;;;;;;1.19;76.02;97926.25;2188924;81;21305;-86
2021/03/13 02:41:46;;;;;;;34.85;17.27;;;;;;;1.19;76.03;97930.13;2188977;81;21186;-86
2021/03/13 02:44:47;;;;;;;36.53;17.23;;;;;;;1.19;75.98;97933.98;2188669;81;21277;-86
2021/03/13 02:47:49;;;;;;;34.25;17.07;;;;;;;1.18;76.01;97922.50;2188963;81;21610;-87
2021/03/13 02:50:50;;;;;;;36.05;18.75;;;;;;;1.17;76.07;97916.53;2188908;81;21613;-87
2021/03/13 02:53:52;;;;;;;33.92;16.75;;;;;;;1.14;76.11;97914.23;2183184;81;21313;-86
2021/03/13 02:56:53;;;;;;;32.53;17.02;;;;;;;1.10;76.06;97904.69;2150844;83;21148;-86
2021/03/13 02:59:55;;;;;;;32.63;16.97;;;;;;;1.10;76.07;97898.72;2150450;83;21167;-86
2021/03/13 03:02:57;;;;;;;35.05;18.67;;;;;;;1.11;76.14;97893.42;2150629;83;21333;-86
2021/03/13 03:05:58;;;;;;;32.73;17.40;;;;;;;1.08;76.18;97887.23;2150527;83;21166;-87
2021/03/13 03:09:00;;;;;;;37.98;17.12;;;;;;;1.07;76.13;97883.03;2150656;83;21285;-86
2021/03/13 03:12:01;;;;;;;34.58;17.32;;;;;;;1.07;76.11;97881.74;2150516;83;21116;-87
2021/03/13 03:15:03;;;;;;;34.40;17.10;;;;;;;1.06;76.12;97883.98;2150709;83;21147;-85
2021/03/13 03:18:05;;;;;;;37.95;16.90;;;;;;;1.07;76.19;97883.03;2150790;83;21205;-85
2021/03/13 03:21:06;;;;;;;37.08;17.15;;;;;;;1.09;76.19;97883.70;2150617;83;21274;-86
2021/03/13 03:24:08;;;;;;;34.98;16.73;;;;;;;1.09;76.23;97882.41;2150547;83;21189;-86
2021/03/13 03:27:10;;;;;;;28.80;14.68;;;;;;;1.12;76.13;97882.16;2150759;83;21285;-86
2021/03/13 03:30:11;;;;;;;32.88;16.32;;;;;;;1.16;76.13;97888.30;2150549;83;21154;-86
2021/03/13 03:33:13;;;;;;;29.52;15.25;;;;;;;1.16;76.14;97894.28;2150641;83;21285;-86
2021/03/13 03:36:15;;;;;;;33.48;15.90;;;;;;;1.16;76.17;97887.02;2150704;83;21297;-86
2021/03/13 03:39:18;;;;;;;31.05;16.15;;;;;;;1.17;76.16;97873.98;2150444;83;21159;-86
2021/03/13 03:42:19;;;;;;;27.80;14.70;;;;;;;1.20;76.06;97868.56;2150647;83;21308;-85
2021/03/13 03:45:21;;;;;;;32.65;16.30;;;;;;;1.23;76.06;97864.88;2150423;83;21175;-86
2021/03/13 03:48:22;;;;;;;31.93;13.98;;;;;;;1.24;76.00;97866.02;2150385;83;21689;-86
2021/03/13 03:51:24;;;;;;;28.95;13.72;;;;;;;1.24;76.01;97857.48;2150434;83;21150;-86
2021/03/13 03:54:25;;;;;;;30.55;14.30;;;;;;;1.23;76.01;97859.24;2159953;81;21135;-86
2021/03/13 03:57:27;;;;;;;26.05;13.90;;;;;;;1.24;75.93;97854.89;2188749;81;21277;-86
2021/03/13 04:00:29;;;;;;;29.40;16.05;;;;;;;1.25;75.94;97856.04;2188702;81;21301;-86
2021/03/13 04:03:30;;;;;;;28.85;15.00;;;;;;;1.24;75.94;97844.58;2189227;81;21319;-87
2021/03/13 04:06:32;;;;;;;27.62;14.10;;;;;;;1.22;75.95;97844.73;2188902;81;21165;-86
2021/03/13 04:09:33;;;;;;;28.80;14.60;;;;;;;1.23;75.96;97848.92;2188739;81;21131;-85
2021/03/13 04:12:35;;;;;;;22.60;13.30;;;;;;;1.26;75.93;97843.95;2188631;81;21720;-86
2021/03/13 04:15:36;;;;;;;28.17;13.80;;;;;;;1.27;75.92;97841.23;2188549;81;21325;-86
2021/03/13 04:18:38;;;;;;;26.20;13.93;;;;;;;1.29;75.91;97842.41;2188715;80;21321;-87
2021/03/13 04:21:40;;;;;;;23.57;11.75;;;;;;;1.30;75.90;97825.48;2188934;81;21292;-87
2021/03/13 04:24:41;;;;;;;23.62;12.82;;;;;;;1.30;75.77;97822.09;2188463;81;21289;-87
2021/03/13 04:27:45;;;;;;;27.82;13.35;;;;;;;1.34;75.70;97816.98;2188754;81;21760;-87
2021/03/13 04:30:46;;;;;;;25.08;11.83;;;;;;;1.39;75.67;97821.24;2188499;81;21177;-86
2021/03/13 04:33:48;;;;;;;29.18;13.72;;;;;;;1.43;75.59;97825.95;2188681;81;21700;-85
2021/03/13 04:36:49;;;;;;;25.50;13.60;;;;;;;1.46;75.57;97805.50;2188583;81;21159;-86
2021/03/13 04:39:51;;;;;;;25.17;11.63;;;;;;;1.48;75.47;97802.33;2188595;81;21301;-86
2021/03/13 04:42:53;;;;;;;26.35;13.95;;;;;;;1.46;75.44;97802.92;2188603;81;21764;-86
2021/03/13 04:45:54;;;;;;;28.05;12.60;;;;;;;1.45;75.42;97807.75;2188522;81;21317;-86
2021/03/13 04:48:56;;;;;;;22.62;11.45;;;;;;;1.45;75.40;97801.30;2188638;81;21324;-87
2021/03/13 04:52:00;;;;;;;22.52;11.93;;;;;;;1.49;75.31;97807.00;2188816;81;21285;-87
2021/03/13 04:55:01;;;;;;;22.32;13.05;;;;;;;1.51;75.26;97795.58;2175148;81;21281;-86
2021/03/13 04:58:03;;;;;;;21.00;11.53;;;;;;;1.53;75.26;97795.42;2150648;83;21728;-86
2021/03/13 05:01:04;;;;;;;23.50;11.97;;;;;;;1.53;75.14;97798.00;2150689;83;21183;-87
2021/03/13 05:04:06;;;;;;;24.27;11.05;;;;;;;1.54;75.16;97786.24;2150924;83;21123;-87
2021/03/13 05:07:08;;;;;;;22.15;10.90;;;;;;;1.55;75.08;97787.05;2150754;83;21261;-86
2021/03/13 05:10:09;;;;;;;24.30;10.58;;;;;;;1.57;75.06;97793.72;2150441;83;21586;-87
2021/03/13 05:13:11;;;;;;;20.68;10.63;;;;;;;1.65;74.99;97787.83;2150750;83;21179;-84
2021/03/13 05:16:12;;;;;;;21.35;10.40;;;;;;;1.74;74.94;97774.50;2150467;83;21203;-84
2021/03/13 05:19:14;;;;;;;18.17;9.65;;;;;;;1.79;74.79;97774.89;2150906;83;21313;-85
2021/03/13 05:22:16;;;;;;;16.73;8.08;;;;;;;1.84;74.67;97773.98;2150551;82;21153;-84
2021/03/13 05:25:17;;;;;;;19.77;9.28;;;;;;;1.91;74.67;97774.98;2150789;83;21147;-84
2021/03/13 05:28:19;;;;;;;15.53;8.28;;;;;;;1.97;74.47;97779.09;2150726;82;21620;-84
2021/03/13 05:31:22;;;;;;;12.93;8.38;;;;;;;2.07;74.47;97772.56;2150701;82;21741;-84
2021/03/13 05:34:24;;;;;;;15.40;8.15;;;;;;;2.19;74.36;97787.34;2150881;83;21147;-84
2021/03/13 05:37:25;;;;;;;16.23;8.30;;;;;;;2.30;74.19;97790.19;2150698;82;21144;-84
2021/03/13 05:40:27;;;;;;;13.38;7.35;;;;;;;2.39;74.08;97787.52;2150816;82;21143;-84
2021/03/13 05:43:29;;;;;;;20.00;8.58;;;;;;;2.50;73.86;97789.05;2150772;83;21186;-84
2021/03/13 05:46:35;;;;;;;12.80;7.55;;;;;;;2.60;73.87;97798.80;2150796;83;21318;-84
2021/03/13 05:49:35;;;;;;;14.53;7.45;;;;;;;2.67;73.64;97793.84;2150480;82;21278;-84
2021/03/13 05:52:36;;;;;;;17.57;7.90;;;;;;;2.74;73.42;97800.00;2190757;81;21336;-84
2021/03/13 05:55:38;;;;;;;14.15;6.50;;;;;;;2.81;73.42;97808.30;2205789;80;21282;-84
2021/03/13 05:58:39;;;;;;;14.65;6.45;;;;;;;2.85;73.15;97814.00;2223206;80;21699;-84
2021/03/13 06:01:41;;;;;;;16.75;8.15;;;;;;;2.89;72.80;97816.59;2223189;80;21179;-84
2021/03/13 06:04:43;;;;;;;15.00;7.37;;;;;;;2.95;73.06;97810.82;2223348;80;21354;-84
2021/03/13 06:07:44;;;;;;;11.10;7.53;;;;;;;3.06;73.00;97820.89;2223158;80;21345;-84
2021/03/13 06:10:46;;;;;;;13.45;7.78;;;;;;;3.17;72.87;97817.23;2222939;80;21695;-84
2021/03/13 06:13:48;;;;;;;15.23;7.87;;;;;;;3.28;72.80;97816.14;2223029;80;21135;-84
2021/03/13 06:16:49;;;;;;;11.70;7.80;;;;;;;3.36;72.73;97822.64;2223192;80;21274;-84
2021/03/13 06:19:51;;;;;;;12.07;7.30;;;;;;;3.42;72.55;97826.72;2223291;80;21132;-84
2021/03/13 06:22:52;;;;;;;10.80;7.22;;;;;;;3.50;72.38;97825.95;2222979;80;21163;-84
2021/03/13 06:25:54;;;;;;;14.43;8.80;;;;;;;3.55;72.30;97839.70;2223152;80;21451;-84
2021/03/13 06:28:56;;;;;;;16.97;7.72;;;;;;;3.60;72.25;97842.65;2223264;80;21614;-84
2021/03/13 06:31:57;;;;;;;18.77;8.45;;;;;;;3.66;72.02;97853.20;2223237;80;21734;-85
2021/03/13 06:34:59;;;;;;;13.78;6.80;;;;;;;3.71;71.91;97849.64;2223034;80;21309;-84
2021/03/13 06:38:00;;;;;;;10.82;5.85;;;;;;;3.79;72.39;97841.58;2222952;80;21167;-84
2021/03/13 06:41:02;;;;;;;11.83;6.15;;;;;;;3.87;73.25;97841.60;2222929;80;21302;-84
2021/03/13 06:44:03;;;;;;;14.78;6.03;;;;;;;3.93;73.53;97840.95;2223175;80;21275;-84
2021/03/13 06:47:05;;;;;;;7.42;4.97;;;;;;;4.00;73.89;97835.47;2222844;80;21294;-87
2021/03/13 06:50:07;;;;;;;11.70;6.15;;;;;;;4.06;74.30;97833.54;2223023;80;21163;-86
2021/03/13 06:53:08;;;;;;;7.17;5.70;;;;;;;4.16;74.10;97846.34;2223265;80;21840;-86
2021/03/13 06:56:10;;;;;;;12.28;6.37;;;;;;;4.26;74.07;97845.22;2224901;80;21721;-84
2021/03/13 06:59:12;;;;;;;11.10;5.90;;;;;;;4.33;74.01;97851.87;2226731;80;21147;-85
2021/03/13 07:02:13;;;;;;;9.38;6.35;;;;;;;4.41;73.97;97853.19;2226750;80;21155;-83
2021/03/13 07:05:15;;;;;;;13.72;6.12;;;;;;;4.53;73.88;97843.30;2226973;80;21190;-84
2021/03/13 07:08:17;;;;;;;8.35;6.60;;;;;;;4.64;73.65;97851.23;2226810;80;21321;-84
2021/03/13 07:11:18;;;;;;;12.25;6.05;;;;;;;4.76;73.34;97848.16;2227554;80;21305;-85
2021/03/13 07:14:20;;;;;;;9.85;6.55;;;;;;;4.87;73.22;97852.20;2226885;80;21571;-87
2021/03/13 07:17:23;;;;;;;10.13;5.92;;;;;;;4.99;73.04;97850.06;2226710;80;21278;-84
2021/03/13 07:20:24;;;;;;;10.38;5.78;;;;;;;5.10;72.68;97845.33;2226936;80;21309;-85
2021/03/13 07:23:27;;;;;;;11.15;5.30;;;;;;;5.28;72.55;97841.23;2227042;80;21171;-88
2021/03/13 07:26:29;;;;;;;11.43;6.22;;;;;;;5.47;72.28;97845.70;2226717;80;21301;-87
2021/03/13 07:29:30;;;;;;;11.88;6.37;;;;;;;5.60;71.97;97840.80;2226789;80;21662;-86
2021/03/13 07:32:32;;;;;;;12.60;6.10;;;;;;;5.65;71.48;97842.39;2227520;80;21604;-88
2021/03/13 07:35:34;;;;;;;11.75;6.83;;;;;;;5.66;71.21;97847.90;2226821;80;21706;-87
2021/03/13 07:38:35;;;;;;;11.80;5.67;;;;;;;5.65;70.62;97844.98;2226846;80;21685;-87
2021/03/13 07:41:37;;;;;;;7.30;3.95;;;;;;;5.64;70.73;97848.56;2226649;80;21322;-87
2021/03/13 07:44:39;;;;;;;12.50;5.45;;;;;;;5.61;70.34;97848.42;2226814;80;21306;-86
2021/03/13 07:47:40;;;;;;;13.65;5.97;;;;;;;5.63;70.58;97861.23;2226593;80;21592;-83
2021/03/13 07:50:46;;;;;;;9.65;5.92;;;;;;;5.64;70.38;97852.45;2226720;80;21273;-85
2021/03/13 07:53:45;;;;;;;11.70;6.42;;;;;;;5.67;69.58;97859.94;2226495;80;21709;-83
2021/03/13 07:56:47;;;;;;;12.98;6.05;;;;;;;5.77;69.93;97858.43;2226638;80;21148;-84
2021/03/13 07:59:48;;;;;;;11.05;6.25;;;;;;;5.91;69.46;97856.42;2226721;80;21309;-87
2021/03/13 08:02:52;;;;;;;13.78;6.70;;;;;;;6.06;69.04;97850.83;2227088;80;21182;-88
2021/03/13 08:05:53;;;;;;;12.47;7.37;;;;;;;6.22;69.02;97862.42;2227360;80;21286;-87
2021/03/13 08:08:56;;;;;;;9.75;5.90;;;;;;;6.35;68.59;97864.94;2227040;80;21309;-89
2021/03/13 08:11:59;;;;;;;11.43;5.80;;;;;;;6.45;67.84;97848.11;2227426;80;21294;-89
2021/03/13 08:15:01;;;;;;;10.08;6.45;;;;;;;6.57;67.71;97855.00;2228358;80;21318;-90
2021/03/13 08:18:03;;;;;;;9.80;5.87;;;;;;;6.76;68.29;97859.72;2227016;80;21160;-88
2021/03/13 08:21:04;;;;;;;9.70;5.20;;;;;;;6.94;67.13;97847.69;2227597;80;21667;-84
2021/03/13 08:24:06;;;;;;;12.53;7.42;;;;;;;7.09;66.20;97856.34;2227017;80;21305;-86
2021/03/13 08:27:10;;;;;;;10.35;5.67;;;;;;;7.34;67.30;97852.99;2227696;80;21258;-89
2021/03/13 08:30:12;;;;;;;7.33;4.60;;;;;;;7.60;66.33;97838.20;2229209;80;21258;-86
2021/03/13 08:33:14;;;;;;;7.55;4.50;;;;;;;7.75;66.72;97843.37;2227162;80;21289;-88
2021/03/13 08:36:16;;;;;;;7.05;4.33;;;;;;;7.88;66.19;97842.75;2228084;80;21277;-90
2021/03/13 08:39:17;;;;;;;7.47;4.10;;;;;;;8.01;66.21;97842.88;2226874;80;21261;-89
2021/03/13 08:42:19;;;;;;;6.03;3.60;;;;;;;8.14;64.33;97837.82;2227916;80;21136;-86
2021/03/13 08:45:20;;;;;;;5.08;3.33;;;;;;;8.31;65.12;97840.16;2227207;80;21305;-89
2021/03/13 08:48:22;;;;;;;5.47;3.37;;;;;;;8.39;63.63;97835.66;2227325;80;21301;-90
2021/03/13 08:51:24;;;;;;;5.97;3.20;;;;;;;8.40;62.04;97840.38;2227000;79;21709;-88
2021/03/13 08:54:25;;;;;;;5.53;2.70;;;;;;;8.37;63.45;97840.27;2227028;80;21709;-92
2021/03/13 08:57:28;;;;;;;2.95;2.65;;;;;;;8.31;62.10;97831.03;2226941;80;21317;-91
2021/03/13 09:00:30;;;;;;;7.42;4.55;;;;;;;8.23;60.35;97835.91;2227034;80;21297;-89
2021/03/13 09:03:32;;;;;;;2.80;2.17;;;;;;;8.18;60.88;97827.81;2227009;80;21277;-91
2021/03/13 09:06:33;;;;;;;5.35;2.85;;;;;;;8.13;61.44;97832.77;2227130;80;21714;-90
2021/03/13 09:09:36;;;;;;;4.67;2.50;;;;;;;8.18;62.44;97829.92;2227178;80;21298;-88
2021/03/13 09:12:39;;;;;;;3.83;2.37;;;;;;;8.23;61.23;97821.06;2226766;80;21286;-88
2021/03/13 09:15:41;;;;;;;5.47;2.55;;;;;;;8.30;59.93;97829.42;2226933;80;21737;-89
2021/03/13 09:18:42;;;;;;;3.65;2.15;;;;;;;8.34;60.09;97826.77;2226997;80;21286;-89
2021/03/13 09:21:44;;;;;;;6.47;3.52;;;;;;;8.43;60.92;97827.80;2226878;80;21688;-88
2021/03/13 09:24:46;;;;;;;12.73;6.47;;;;;;;8.60;59.94;97826.23;2227640;79;21305;-89
2021/03/13 09:27:48;;;;;;;4.30;2.35;;;;;;;8.91;61.23;97831.08;2226893;80;21290;-89
2021/03/13 09:30:49;;;;;;;3.25;2.17;;;;;;;9.00;58.09;97829.44;2227150;80;21689;-88
2021/03/13 09:33:51;;;;;;;5.47;2.37;;;;;;;9.18;58.57;97833.37;2226804;80;21316;-89
2021/03/13 09:36:53;;;;;;;6.08;2.22;;;;;;;9.17;57.22;97820.01;2227009;80;21717;-86
2021/03/13 09:39:54;;;;;;;4.12;1.90;;;;;;;9.25;58.16;97832.42;2227046;80;21178;-92
2021/03/13 09:42:56;;;;;;;2.75;1.67;;;;;;;9.20;56.78;97831.37;2227754;80;21335;-90
2021/03/13 09:45:57;;;;;;;4.87;2.27;;;;;;;9.16;57.56;97825.73;2227687;80;21143;-90
2021/03/13 09:48:59;;;;;;;2.47;2.10;;;;;;;9.18;57.57;97822.92;2227509;80;21172;-91
2021/03/13 09:52:01;;;;;;;3.83;2.17;;;;;;;9.21;56.68;97812.08;2227656;80;21274;-87
2021/03/13 09:55:02;;;;;;;3.47;1.95;;;;;;;9.31;58.46;97817.77;2227774;80;21758;-88
2021/03/13 09:58:04;;;;;;;3.92;2.50;;;;;;;9.39;56.79;97805.84;2187641;78;21870;-89
2021/03/13 10:01:06;;;;;;;5.33;2.45;;;;;;;9.48;57.73;97805.98;2183697;81;21285;-90
2021/03/13 10:04:07;;;;;;;3.52;2.10;;;;;;;9.60;56.86;97808.84;2183470;81;21701;-90
2021/03/13 10:07:09;;;;;;;3.17;2.22;;;;;;;9.78;57.78;97807.00;2183485;81;21308;-89
2021/03/13 10:10:11;;;;;;;4.20;2.62;;;;;;;9.99;57.70;97801.66;2183759;81;21316;-87
2021/03/13 10:13:13;;;;;;;2.55;2.02;;;;;;;10.19;56.38;97800.38;2183221;81;21292;-88
2021/03/13 10:16:15;;;;;;;3.50;2.22;;;;;;;10.32;56.62;97799.11;2183605;81;21716;-87
2021/03/13 10:19:17;;;;;;;3.98;1.95;;;;;;;10.49;57.19;97799.03;2183242;81;21309;-87
2021/03/13 10:22:18;;;;;;;4.20;2.12;;;;;;;10.60;55.97;97795.00;2183173;81;21344;-86
2021/03/13 10:25:20;;;;;;;4.15;1.77;;;;;;;10.71;56.14;97794.92;2183323;81;21169;-90
2021/03/13 10:28:22;;;;;;;5.22;2.77;;;;;;;10.71;54.55;97785.75;2183295;81;21303;-86
2021/03/13 10:31:23;;;;;;;3.37;2.42;;;;;;;10.65;54.25;97784.73;2183477;81;21272;-87
2021/03/13 10:34:25;;;;;;;3.52;2.37;;;;;;;10.61;53.88;97776.20;2183411;81;21772;-87
2021/03/13 10:37:26;;;;;;;4.35;1.92;;;;;;;10.65;54.59;97775.58;2183731;81;21142;-85
2021/03/13 10:40:28;;;;;;;4.85;2.35;;;;;;;10.71;55.04;97777.91;2183676;81;21305;-87
2021/03/13 10:43:31;;;;;;;1.77;1.65;;;;;;;10.83;54.88;97771.03;2184115;81;21256;-86
2021/03/13 10:46:32;;;;;;;3.98;2.22;;;;;;;10.95;53.98;97757.60;2183317;81;21425;-87
2021/03/13 10:49:34;;;;;;;3.08;2.25;;;;;;;11.07;52.90;97752.05;2183387;81;21119;-88
2021/03/13 10:52:37;;;;;;;2.45;2.05;;;;;;;11.15;53.02;97751.50;2183456;81;21150;-88
2021/03/13 10:55:39;;;;;;;2.50;2.25;;;;;;;11.16;52.61;97746.08;2183721;80;21574;-87
2021/03/13 10:58:40;;;;;;;4.28;3.00;;;;;;;11.15;51.81;97735.28;2184168;81;21618;-87
2021/03/13 11:01:42;;;;;;;4.50;2.40;;;;;;;11.17;51.88;97738.52;2183338;81;21288;-88
2021/03/13 11:04:44;;;;;;;4.58;2.12;;;;;;;11.26;51.63;97736.48;2183473;81;21275;-86
2021/03/13 11:07:45;;;;;;;4.78;2.75;;;;;;;11.36;51.19;97737.64;2183217;81;21276;-86
2021/03/13 11:10:47;;;;;;;4.17;2.25;;;;;;;11.47;51.43;97730.94;2183390;81;21146;-86
2021/03/13 11:13:49;;;;;;;2.45;1.95;;;;;;;11.54;51.04;97733.02;2183532;81;21304;-85
2021/03/13 11:16:51;;;;;;;3.80;2.40;;;;;;;11.56;50.16;97722.33;2183482;81;21303;-85
2021/03/13 11:19:53;;;;;;;3.95;2.00;;;;;;;11.58;51.41;97718.47;2183186;81;21162;-85
2021/03/13 11:22:56;;;;;;;3.55;2.25;;;;;;;11.55;50.97;97728.59;2183403;81;21166;-86
2021/03/13 11:25:57;;;;;;;6.42;2.58;;;;;;;11.51;50.30;97722.14;2183200;81;21298;-86
2021/03/13 11:28:59;;;;;;;4.53;2.67;;;;;;;11.46;50.38;97710.98;2183411;81;21708;-88
2021/03/13 11:32:01;;;;;;;4.20;2.45;;;;;;;11.34;49.69;97713.47;2183512;81;21741;-87
2021/03/13 11:35:02;;;;;;;14.15;11.33;;;;;;;11.30;50.71;97708.33;2183515;81;21596;-90
2021/03/13 11:38:04;;;;;;;2.87;2.27;;;;;;;11.30;50.28;97713.56;2183462;81;21321;-88
2021/03/13 11:41:06;;;;;;;2.22;1.98;;;;;;;11.35;49.92;97712.95;2183323;81;21324;-84
2021/03/13 11:44:07;;;;;;;5.50;2.83;;;;;;;11.37;50.59;97718.28;2183087;81;21316;-85
2021/03/13 11:47:09;;;;;;;9.83;3.37;;;;;;;11.42;50.48;97707.66;2183436;81;21307;-85
2021/03/13 11:50:10;;;;;;;5.40;2.87;;;;;;;11.43;50.48;97694.38;2183364;81;21316;-85
2021/03/13 11:53:12;;;;;;;5.37;3.22;;;;;;;11.42;50.35;97700.59;2183159;81;21557;-84
2021/03/13 11:56:14;;;;;;;3.67;2.02;;;;;;;11.41;50.57;97691.13;2183449;79;21277;-84
2021/03/13 11:59:18;;;;;;;4.58;2.50;;;;;;;11.38;50.57;97698.91;2183451;81;21264;-88
2021/03/13 12:02:20;;;;;;;6.25;2.42;;;;;;;11.38;50.66;97690.25;2183505;81;21260;-87
2021/03/13 12:05:21;;;;;;;11.43;5.37;;;;;;;11.43;50.06;97681.27;2183561;81;21284;-87
2021/03/13 12:08:23;;;;;;;6.00;3.58;;;;;;;11.49;50.38;97671.23;2183735;81;21304;-87
2021/03/13 12:11:25;;;;;;;6.17;3.15;;;;;;;11.60;50.42;97653.52;2183741;81;21319;-86
2021/03/13 12:14:26;;;;;;;6.25;2.87;;;;;;;11.76;50.28;97652.72;2183341;81;21748;-86
2021/03/13 12:17:28;;;;;;;5.50;2.27;;;;;;;11.89;50.17;97658.72;2183596;81;21304;-87
2021/03/13 12:20:29;;;;;;;4.62;2.30;;;;;;;11.95;49.45;97642.61;2183401;81;21695;-87
2021/03/13 12:23:31;;;;;;;5.15;2.65;;;;;;;12.00;49.26;97632.80;2183419;81;21304;-85
2021/03/13 12:26:33;;;;;;;3.65;2.20;;;;;;;12.04;49.48;97632.66;2184337;81;21768;-86
2021/03/13 12:29:34;;;;;;;2.77;2.30;;;;;;;12.10;48.86;97625.25;2183353;81;21489;-85
2021/03/13 12:32:36;;;;;;;5.55;2.92;;;;;;;12.13;49.71;97622.98;2183340;81;21327;-85
2021/03/13 12:35:38;;;;;;;8.00;4.15;;;;;;;12.16;49.23;97620.44;2183509;81;21711;-88
2021/03/13 12:38:40;;;;;;;3.87;2.52;;;;;;;12.15;49.68;97615.70;2183272;81;21276;-86
2021/03/13 12:41:41;;;;;;;4.35;2.30;;;;;;;12.13;49.02;97607.24;2183263;81;21122;-86
2021/03/13 12:44:43;;;;;;;4.47;2.85;;;;;;;12.07;49.44;97612.55;2183432;81;21288;-87
2021/03/13 12:47:46;;;;;;;4.62;2.67;;;;;;;12.02;48.75;97605.84;2183296;81;21202;-87
2021/03/13 12:50:48;;;;;;;21.50;7.80;;;;;;;11.99;49.34;97604.97;2183491;81;21157;-87
2021/03/13 12:53:49;;;;;;;31.85;13.25;;;;;;;12.00;49.16;97605.27;2183224;81;21269;-85
2021/03/13 12:56:51;;;;;;;19.17;9.03;;;;;;;12.00;49.04;97603.95;2183387;80;21716;-88
2021/03/13 12:59:52;;;;;;;27.93;12.53;;;;;;;11.96;49.15;97601.73;2183426;81;21130;-88
2021/03/13 13:02:54;;;;;;;45.85;22.17;;;;;;;11.95;49.11;97613.25;2183559;81;21700;-88
2021/03/13 13:05:55;;;;;;;19.57;8.35;;;;;;;11.96;49.63;97607.49;2183362;81;21694;-88
2021/03/13 13:08:57;;;;;;;24.47;10.78;;;;;;;11.97;49.13;97606.47;2183379;81;21311;-89
2021/03/13 13:11:59;;;;;;;14.60;8.00;;;;;;;11.96;49.04;97612.23;2183311;81;21288;-85
2021/03/13 13:15:00;;;;;;;119.28;46.18;;;;;;;11.91;48.48;97606.04;2183067;81;21169;-85
2021/03/13 13:18:02;;;;;;;26.45;10.80;;;;;;;11.87;49.12;97614.83;2183530;81;21291;-86
2021/03/13 13:21:03;;;;;;;16.10;6.40;;;;;;;11.88;49.10;97602.52;2183469;81;21272;-85
2021/03/13 13:24:05;;;;;;;8.38;4.25;;;;;;;11.90;48.59;97603.92;2183300;81;21281;-85
2021/03/13 13:27:07;;;;;;;10.80;5.58;;;;;;;11.97;48.65;97597.30;2183210;81;21321;-85
2021/03/13 13:30:09;;;;;;;28.92;12.53;;;;;;;12.06;48.60;97580.77;2183129;81;21744;-85
2021/03/13 13:33:11;;;;;;;27.27;17.65;;;;;;;12.03;48.76;97593.81;2183290;81;21333;-89
2021/03/13 13:36:13;;;;;;;9.68;5.70;;;;;;;12.00;48.82;97587.70;2183266;81;21165;-84
2021/03/13 13:39:15;;;;;;;8.13;4.00;;;;;;;11.96;49.15;97585.20;2183471;81;21320;-89
2021/03/13 13:42:16;;;;;;;8.18;5.20;;;;;;;11.90;48.43;97584.77;2183604;81;21689;-87
2021/03/13 13:45:18;;;;;;;11.08;5.87;;;;;;;11.86;48.47;97574.39;2183474;81;21721;-86
2021/03/13 13:48:19;;;;;;;11.63;7.22;;;;;;;11.83;47.97;97576.14;2183495;81;21731;-88
2021/03/13 13:51:21;;;;;;;9.15;5.03;;;;;;;11.75;47.80;97573.75;2183407;81;21169;-87
2021/03/13 13:54:25;;;;;;;10.08;3.75;;;;;;;11.69;48.26;97579.34;2183654;81;21170;-89
2021/03/13 13:57:28;;;;;;;11.48;5.45;;;;;;;11.62;48.03;97572.85;2183268;78;21142;-88
2021/03/13 14:00:29;;;;;;;8.63;4.25;;;;;;;11.59;48.41;97573.77;2183636;81;21114;-88
2021/03/13 14:03:31;;;;;;;5.87;3.70;;;;;;;11.62;47.96;97570.23;2183532;81;21740;-86
2021/03/13 14:06:33;;;;;;;6.00;3.87;;;;;;;11.61;48.40;97564.70;2183846;81;21178;-86
2021/03/13 14:09:35;;;;;;;8.08;4.15;;;;;;;11.55;48.51;97568.16;2183672;81;21335;-88
2021/03/13 14:12:36;;;;;;;11.20;4.53;;;;;;;11.47;48.09;97562.37;2183324;81;21288;-86